LFOP/URO METAR and TAF weather

Enter ICAO airport designator
Station Type Date Time Source
LFOP METAR 2021/09/25 13:00 UTC NOAA

LFOP 251300Z AUTO 16004KT 120V220 9999 FEW025 22/14 Q1014 NOSIG


Station Type Date Time Source
LFOP Decoded METAR 2021/09/25 13:00 UTC NOAA

Rouen, France (LFOP) 49-23N 001-11E 157M
Sep 25, 2021 - 09:00 AM EDT / 2021.09.25 1300 UTC
Wind: from the SSE (160 degrees) at 5 MPH (4 KT) (direction variable):0
Visibility: greater than 7 mile(s):0
Sky conditions: mostly clear
Temperature: 71 F (22 C)
Dew Point: 57 F (14 C)
Relative Humidity: 60%
Pressure (altimeter): 29.94 in. Hg (1014 hPa)
ob: LFOP 251300Z AUTO 16004KT 120V220 9999 FEW025 22/14 Q1014 NOSIG
cycle: 13

Station Type Date Time Source
LFOP TAF 2021/09/25 12:46 UTC NOAA

TAF LFOP 251100Z 2512/2612 15007KT CAVOK
TEMPO 2517/2522 -RA BKN060TCU
BECMG 2523/2602 OVC003
TEMPO 2602/2612 4000 RA OVC003 BKN020TCU PROB40
TEMPO 2609/2612 BKN020CB

Example: see airport list